Ault Field, Washington
Current Conditions -  °F | °C
As of 5:56 PM on Saturday 22 Nov 2014 (Local Time) from KNUW Reporting Station
Broken Clouds Broken Clouds  
Wind Chill: 52°   Ceiling: 12000
Heat Index: 52°   Visibility: 10mi
Dew Point: 44°   Wind: 14mph
Humidity: 74%   Direction: 260°W
Pressure: 29.99"   Gusts: NA
Location:  48.3182°N, 122.634°W
Report Text: KNUW 230156Z 26012KT 10SM FEW020 SCT038 BKN120 11/07 A2999 RMK AO2 SLP157 T01110067 $
Loading
Personal Weather Stations






























Interactive Weather Map New forecast layout! Learn more

10-Day Weather Forecast

Advertisements
Track Severe Weather on mobile